Sidney, Missouri
Current Conditions -  °F | °C
As of 3:55 AM on Saturday 25 Oct 2014 (Local Time) from KIRK Reporting Station
Moderate Fog Moderate Fog  
Wind Chill: 56°   Ceiling: 500
Heat Index: 56°   Visibility: 0.25mi
Dew Point: 56°   Wind: 5mph
Humidity: 100%   Direction: 270°W
Pressure: 30"   Gusts: NA
Location:  40.3102°N, 92.8794°W
Report Text: KIRK 250855Z AUTO 27004KT 1/4SM FG VV005 13/13 A3000 RMK AO2 SLP157 T01330133 51004
Loading
Personal Weather Stations






























Interactive Weather Map
Tropical Storm Tracking
New forecast layout! Learn more

10-Day Weather Forecast

Advertisements
Track Severe Weather on mobile